Latest Coastal Weather Observations for Gold Coast Seaway

IDQ60701

Issued at 1:42 pm EST Tuesday 28 June 2016 (issued every 10 minutes, with the page automatically refreshed every 10 minutes)

About coastal observations | Map of coastal stations | Coastal observations for QLD | Marine services | Other Formats
Station Details ID: 040764 Name: GOLD COAST SEAWAY Lat: -27.94 Lon: 153.43 Height: 2.98 m
Data from the previous 72 hours. | See also: Recent months at Gold Coast Seaway
Date/Time
EST
Temp
°C
Wind Pressure Rain since
9am
mm
Weather Cloud Vis
km
Sea
Height
m
Swell
Dir  Spd
kts
Gust
kts
hPa Trend Height
m
Period
s
Dir
28/01:30pm 20.5 E 3 10 1018.6 - 0.0 - - - - - - -
28/01:00pm 19.0 E 4 6 1018.6 - 0.0 - - - - - - -
28/12:30pm 18.4 WSW 6 10 1018.8 - 0.0 - - - - - - -
28/12:00pm 17.4 W 9 14 1019.0 - 0.0 - - - - - - -
28/11:30am 16.8 W 10 14 1019.4 - 0.0 - - - - - - -
28/11:00am 15.9 WNW 13 16 1019.7 - 0.0 - - - - - - -
28/10:30am 15.2 WNW 13 16 1019.7 - 0.0 - - - - - - -
28/10:00am 14.6 W 10 14 1019.9 - 0.0 - - - - - - -
28/09:30am 13.5 W 11 14 1020.0 - 0.0 - - - - - - -
28/09:00am 12.9 WNW 14 17 1019.9 - 0.0 - - - - - - -
28/08:30am 12.0 W 12 15 1019.6 - 0.0 - - - - - - -
28/08:00am 11.1 WNW 11 16 1019.5 - 0.0 - - - - - - -
28/07:30am 10.1 WNW 10 14 1019.6 - 0.0 - - - - - - -
28/07:00am 9.4 W 13 16 1019.3 - 0.0 - - - - - - -
28/06:30am 9.3 WNW 12 15 1019.0 - 0.0 - - - - - - -
28/06:00am 9.3 WNW 13 16 1018.9 - 0.0 - - - - - - -
28/05:30am 9.5 NW 16 19 1018.5 - 0.0 - - - - - - -
28/05:00am 9.5 WNW 12 15 1018.2 - 0.0 - - - - - - -
28/04:30am 9.7 WNW 13 17 1017.9 - 0.0 - - - - - - -
28/04:00am 10.1 WNW 15 19 1017.5 - 0.0 - - - - - - -
28/03:30am 10.0 WNW 14 18 1017.7 - 0.0 - - - - - - -
28/03:00am 10.1 WNW 17 22 1017.6 - 0.0 - - - - - - -
28/02:30am 10.1 WNW 15 18 1017.5 - 0.0 - - - - - - -
28/02:00am 10.2 WNW 11 15 1017.6 - 0.0 - - - - - - -
28/01:30am 10.2 WNW 11 17 1017.6 - 0.0 - - - - - - -
28/01:00am 10.5 W 9 12 1017.7 - 0.0 - - - - - - -
28/12:30am 10.8 WNW 9 14 1017.5 - 0.0 - - - - - - -
28/12:00am 10.9 W 13 16 1017.5 - 0.0 - - - - - - -
 
Date/Time
EST
Temp
°C
Wind Pressure Rain since
9am
mm
Weather Cloud Vis
km
Sea
Height
m
Swell
Dir  Spd
kts
Gust
kts
hPa Trend Height
m
Period
s
Dir
27/11:30pm 11.2 W 11 15 1017.6 - 0.0 - - - - - - -
27/11:00pm 11.8 W 12 18 1017.7 - 0.0 - - - - - - -
27/10:30pm 11.9 W 15 20 1017.5 - 0.0 - - - - - - -
27/10:00pm 11.9 WNW 9 14 1017.8 - 0.0 - - - - - - -
27/09:30pm 12.4 W 12 16 1017.7 - 0.0 - - - - - - -
27/09:00pm 12.6 WSW 13 21 1017.5 - 0.0 - - - - - - -
27/08:30pm 12.9 W 13 19 1017.0 - 0.0 - - - - - - -
27/08:00pm 12.4 WSW 5 8 1017.0 - 0.0 - - - - - - -
27/07:30pm 13.1 W 10 15 1016.4 - 0.0 - - - - - - -
27/07:00pm 13.6 W 9 14 1016.1 - 0.0 - - - - - - -
27/06:30pm 14.0 W 12 18 1015.6 - 0.0 - - - - - - -
27/06:00pm 14.5 W 16 21 1015.0 - 0.0 - - - - - - -
27/05:30pm 15.3 WNW 16 22 1014.6 - 0.0 - - - - - - -
27/05:00pm 16.1 WNW 17 23 1013.8 - 0.0 - - - - - - -
27/04:30pm 17.1 WNW 16 21 1013.4 - 0.0 - - - - - - -
27/04:00pm 18.0 WNW 16 20 1013.1 - 0.0 - - - - - - -
27/03:30pm 18.1 WNW 16 22 1012.9 - 0.0 - - - - - - -
27/03:00pm 18.5 NW 17 22 1012.6 - 0.0 - - - - - - -
27/02:30pm 18.1 WNW 16 19 1012.5 - 0.0 - - - - - - -
27/02:00pm 18.3 NW 17 20 1012.6 - 0.0 - - - - - - -
27/01:30pm 17.8 NW 16 19 1012.8 - 0.0 - - - - - - -
27/01:00pm 17.1 NW 15 18 1013.3 - 0.0 - - - - - - -
27/12:30pm 17.1 NW 16 20 1013.7 - 0.0 - - - - - - -
27/12:00pm 17.6 NW 17 22 1014.0 - 0.0 - - - - - - -
27/11:30am 17.7 WNW 17 22 1014.6 - 0.0 - - - - - - -
27/11:00am 17.2 NW 16 20 1015.1 - 0.0 - - - - - - -
27/10:30am 16.7 NW 17 21 1015.6 - 0.0 - - - - - - -
27/10:00am 16.2 NW 19 24 1016.1 - 0.0 - - - - - - -
27/09:30am 15.7 NW 19 22 1016.3 - 0.0 - - - - - - -
27/09:00am 15.7 NW 10 14 1016.5 - 0.0 - - - - - - -
27/08:30am 15.3 NNW 9 12 1016.3 - 0.0 - - - - - - -
27/08:00am 14.9 WNW 11 14 1016.0 - 0.0 - - - - - - -
27/07:30am 14.4 NNW 7 9 1016.2 - 0.0 - - - - - - -
27/07:00am 13.8 NNW 6 7 1015.8 - 0.0 - - - - - - -
27/06:30am 14.1 NNW 6 7 1015.7 - 0.0 - - - - - - -
27/06:00am 14.4 NW 6 8 1015.5 - 0.0 - - - - - - -
27/05:30am 15.0 NW 7 8 1015.5 - 0.0 - - - - - - -
27/05:00am 14.8 NNW 5 7 1015.1 - 0.0 - - - - - - -
27/04:30am 14.8 NW 7 9 1015.3 - 0.0 - - - - - - -
27/04:00am 14.4 WNW 6 8 1014.7 - 0.0 - - - - - - -
27/03:30am 14.3 WNW 7 8 1014.6 - 0.0 - - - - - - -
27/03:00am 14.2 WNW 7 7 1015.0 - 0.0 - - - - - - -
27/02:30am 14.2 WNW 6 9 1015.1 - 0.0 - - - - - - -
27/02:00am 14.1 WNW 4 5 1015.1 - 0.0 - - - - - - -
27/01:30am 14.1 W 4 4 1014.7 - 0.0 - - - - - - -
27/01:00am 13.9 WSW 4 5 1015.8 - 0.0 - - - - - - -
27/12:30am 14.0 SW 3 4 1016.3 - 0.0 - - - - - - -
27/12:00am 14.2 SW 5 6 1017.0 - 0.0 - - - - - - -
 
Date/Time
EST
Temp
°C
Wind Pressure Rain since
9am
mm
Weather Cloud Vis
km
Sea
Height
m
Swell
Dir  Spd
kts
Gust
kts
hPa Trend Height
m
Period
s
Dir
26/11:30pm 14.3 WSW 5 6 1017.2 - 0.0 - - - - - - -
26/11:00pm 14.1 SW 4 6 1017.2 - 0.0 - - - - - - -
26/10:30pm 14.1 WSW 5 5 1017.5 - 0.0 - - - - - - -
26/10:00pm 14.2 WSW 5 7 1017.7 - 0.0 - - - - - - -
26/09:30pm 14.3 W 5 5 1017.5 - 0.0 - - - - - - -
26/09:00pm 14.4 W 5 6 1018.2 - 0.0 - - - - - - -
26/08:30pm 14.2 W 3 4 1017.8 - 0.0 - - - - - - -
26/08:00pm 14.4 WNW 5 6 1018.4 - 0.0 - - - - - - -
26/07:30pm 14.9 W 6 6 1018.7 - 0.0 - - - - - - -
26/07:00pm 15.0 WNW 5 5 1018.3 - 0.0 - - - - - - -
26/06:30pm 15.2 NW 5 6 1018.3 - 0.0 - - - - - - -
26/06:00pm 15.3 NW 6 7 1017.7 - 0.0 - - - - - - -
26/05:30pm 15.2 NNW 5 6 1017.6 - 0.0 - - - - - - -
26/05:00pm 15.5 NNW 5 6 1017.3 - 0.0 - - - - - - -
26/04:30pm 16.0 N 5 6 1017.3 - 0.0 - - - - - - -
26/04:00pm 16.4 N 6 7 1017.5 - 0.0 - - - - - - -
26/03:30pm 16.8 NNE 5 7 1017.3 - 0.0 - - - - - - -
26/03:00pm 17.1 NNE 6 7 1017.4 - 0.0 - - - - - - -
26/02:30pm 17.4 NNE 6 7 1017.7 - 0.0 - - - - - - -
26/02:00pm 17.3 NE 5 6 1018.0 - 0.0 - - - - - - -
26/01:30pm 17.1 ENE 5 6 1018.2 - 0.0 - - - - - - -
26/01:00pm 17.5 ENE 4 5 1018.6 - 0.0 - - - - - - -
26/12:30pm 17.9 ENE 4 4 1019.1 - 0.0 - - - - - - -
26/12:00pm 16.9 ESE 3 4 1019.6 - 0.0 - - - - - - -
26/11:30am 16.1 ESE 3 5 1020.2 - 0.0 - - - - - - -
26/11:00am 16.0 SE 5 6 1020.6 - 0.0 - - - - - - -
26/10:30am 16.1 SE 5 6 1021.0 - 0.0 - - - - - - -
26/10:00am 15.4 SE 1 4 1021.0 - 0.0 - - - - - - -
26/09:30am 13.5 SSE 2 5 1021.3 - 0.0 - - - - - - -
26/09:00am 12.4 NW 7 8 1021.3 - 0.0 - - - - - - -
26/08:30am 11.3 NW 8 9 1021.3 - 0.0 - - - - - - -
26/08:00am 10.8 WNW 7 9 1020.9 - 0.0 - - - - - - -
26/07:30am 9.7 WNW 9 9 1020.9 - 0.0 - - - - - - -
26/07:00am 9.3 WNW 8 9 1020.4 - 0.0 - - - - - - -
26/06:30am 8.5 W 7 8 1020.0 - 0.0 - - - - - - -
26/06:00am 8.3 W 7 8 1019.5 - 0.0 - - - - - - -
26/05:30am 8.4 WSW 7 8 1019.2 - 0.0 - - - - - - -
26/05:00am 7.7 WSW 5 6 1019.1 - 0.0 - - - - - - -
26/04:30am 6.7 WSW 6 7 1018.6 - 0.0 - - - - - - -
26/04:00am 8.0 WSW 1 4 1018.6 - 0.0 - - - - - - -
26/03:30am 8.9 WSW 7 8 1018.6 - 0.0 - - - - - - -
26/03:00am 8.9 WSW 7 9 1018.6 - 0.0 - - - - - - -
26/02:30am 9.0 W 7 8 1018.6 - 0.0 - - - - - - -
26/02:00am 8.7 WSW 7 9 1018.9 - 0.0 - - - - - - -
26/01:30am 8.6 WSW 6 7 1018.9 - 0.0 - - - - - - -
26/01:00am 9.0 WSW 6 7 1019.3 - 0.0 - - - - - - -
26/12:30am 9.0 WSW 6 8 1019.2 - 0.0 - - - - - - -
26/12:00am 9.4 WSW 7 8 1019.3 - 0.0 - - - - - - -
 
Date/Time
EST
Temp
°C
Wind Pressure Rain since
9am
mm
Weather Cloud Vis
km
Sea
Height
m
Swell
Dir  Spd
kts
Gust
kts
hPa Trend Height
m
Period
s
Dir
25/11:30pm 9.5 WSW 6 7 1019.4 - 0.0 - - - - - - -
25/11:00pm 9.4 WSW 6 7 1019.6 - 0.0 - - - - - - -
25/10:30pm 9.2 WSW 6 8 1019.9 - 0.0 - - - - - - -
25/10:00pm 9.6 WSW 7 9 1019.9 - 0.0 - - - - - - -
25/09:30pm 10.0 SW 7 8 1019.8 - 0.0 - - - - - - -
25/09:00pm 9.9 SW 7 8 1019.6 - 0.0 - - - - - - -
25/08:30pm 10.1 SW 7 8 1019.6 - 0.0 - - - - - - -
25/08:00pm 10.5 SW 7 8 1019.5 - 0.0 - - - - - - -
25/07:30pm 11.1 SW 6 7 1019.4 - 0.0 - - - - - - -
25/07:00pm 10.1 SW 4 4 1019.0 - 0.0 - - - - - - -
25/06:30pm 11.6 SSW 6 8 1018.7 - 0.0 - - - - - - -
25/06:00pm 12.3 SSE 7 9 1018.3 - 0.0 - - - - - - -
25/05:30pm 14.0 ESE 7 9 1017.9 - 0.0 - - - - - - -
25/05:00pm 14.3 ESE 7 9 1017.6 - 0.0 - - - - - - -
25/04:30pm 15.5 ESE 8 10 1017.3 - 0.0 - - - - - - -
25/04:00pm 16.2 ESE 8 10 1017.1 - 0.0 - - - - - - -
25/03:30pm 16.5 ESE 8 10 1016.9 - 0.0 - - - - - - -
25/03:00pm 16.8 E 8 10 1016.8 - 0.0 - - - - - - -
25/02:30pm 17.0 E 9 10 1016.8 - 0.0 - - - - - - -
25/02:00pm 17.2 E 7 8 1016.8 - 0.0 - - - - - - -

Other Formats:

Comma delimited format used in spreadsheet applications
http://www.bom.gov.au/fwo/IDQ60701/IDQ60701.94580.axf

JavaScript Object Notation format (JSON) in row-major order
http://www.bom.gov.au/fwo/IDQ60701/IDQ60701.94580.json